Time;durP1;ratioP1;P1;durP2;ratioP2;P2;SDS_P1;SDS_P2;PMS_P1;PMS_P2;Temp;Humidity;BMP_temperature;BMP_pressure;BME280_temperature;BME280_humidity;BME280_pressure;Samples;Min_cycle;Max_cycle;Signal;HPM_P1;HPM_P2
2022/11/23 00:00:40;;;;;;;1.67;0.60;;;11.60;71.60;;;;;;2334150;53;20964;-76
2022/11/23 00:03:06;;;;;;;3.00;0.80;;;11.60;71.70;;;;;;2334409;53;20977;-74
2022/11/23 00:05:34;;;;;;;3.35;0.73;;;11.60;71.70;;;;;;2334015;53;21318;-74
2022/11/23 00:08:02;;;;;;;3.33;0.90;;;11.50;71.50;;;;;;2428395;52;20936;-72
2022/11/23 00:10:28;;;;;;;3.12;0.80;;;11.60;71.60;;;;;;2334272;53;20976;-75
2022/11/23 00:12:55;;;;;;;3.60;0.73;;;11.60;71.70;;;;;;2504902;52;21976;-72
2022/11/23 00:15:21;;;;;;;4.85;0.62;;;11.60;71.70;;;;;;2333739;53;21028;-76
2022/11/23 00:17:48;;;;;;;2.37;0.80;;;11.60;71.70;;;;;;2334329;53;21315;-74
2022/11/23 00:20:16;;;;;;;2.78;0.70;;;11.60;71.70;;;;;;2372037;52;20941;-77
2022/11/23 00:22:42;;;;;;;3.62;0.75;;;11.60;71.70;;;;;;2340252;53;20967;-72
2022/11/23 00:25:10;;;;;;;3.12;0.73;;;11.60;71.70;;;;;;2328150;53;20951;-76
2022/11/23 00:27:38;;;;;;;3.75;0.90;;;11.50;71.60;;;;;;2333489;53;21061;-77
2022/11/23 00:30:06;;;;;;;2.83;0.55;;;11.50;71.50;;;;;;2333620;53;21305;-75
2022/11/23 00:32:32;;;;;;;4.03;0.60;;;11.50;71.50;;;;;;2345433;53;21217;-76
2022/11/23 00:34:59;;;;;;;3.60;0.77;;;11.50;71.50;;;;;;2334321;53;21598;-76
2022/11/23 00:37:25;;;;;;;2.87;0.70;;;11.50;71.60;;;;;;2333969;53;20935;-75
2022/11/23 00:39:53;;;;;;;1.80;0.60;;;11.50;71.60;;;;;;2320024;53;20934;-74
2022/11/23 00:42:19;;;;;;;1.55;0.50;;;11.50;71.60;;;;;;2337657;53;22021;-73
2022/11/23 00:44:46;;;;;;;2.15;0.60;;;11.50;71.60;;;;;;2333367;53;21009;-75
2022/11/23 00:47:12;;;;;;;2.37;0.60;;;11.50;71.60;;;;;;2343071;53;21045;-76
2022/11/23 00:49:42;;;;;;;2.37;0.77;;;11.30;71.40;;;;;;2613465;52;20958;-77
2022/11/23 00:52:09;;;;;;;1.12;0.45;;;11.50;71.70;;;;;;2366285;52;21057;-74
2022/11/23 00:54:36;;;;;;;2.17;0.60;;;11.50;71.60;;;;;;2403083;52;1778774;-74
2022/11/23 00:57:02;;;;;;;2.97;0.80;;;11.40;71.70;;;;;;2505877;52;21021;-74
2022/11/23 00:59:30;;;;;;;2.30;0.70;;;11.40;71.60;;;;;;2361270;53;21978;-77
2022/11/23 01:01:57;;;;;;;3.03;0.80;;;11.40;71.50;;;;;;2361877;53;21804;-74
2022/11/23 01:04:24;;;;;;;2.67;0.70;;;11.40;71.50;;;;;;2361459;53;21946;-76
2022/11/23 01:06:54;;;;;;;2.55;0.60;;;11.40;71.60;;;;;;2370272;52;20954;-74
2022/11/23 01:09:23;;;;;;;1.87;0.60;;;11.40;71.50;;;;;;2360870;53;22008;-76
2022/11/23 01:11:50;;;;;;;3.22;0.80;;;11.40;71.70;;;;;;2587808;52;20946;-76
2022/11/23 01:14:16;;;;;;;1.77;0.68;;;11.40;71.60;;;;;;2354991;53;21002;-77
2022/11/23 01:16:43;;;;;;;2.25;0.70;;;11.40;71.60;;;;;;2366560;52;20986;-72
2022/11/23 01:19:15;;;;;;;3.62;0.70;;;11.40;71.60;;;;;;2351255;53;21289;-72
2022/11/23 01:21:44;;;;;;;2.45;0.90;;;11.40;71.50;;;;;;2361348;53;20970;-72
2022/11/23 01:24:13;;;;;;;2.67;0.60;;;11.30;71.40;;;;;;2362435;52;20950;-73
2022/11/23 01:26:40;;;;;;;2.65;0.70;;;11.30;71.50;;;;;;2353750;52;21002;-73
2022/11/23 01:29:07;;;;;;;3.50;0.90;;;11.40;71.60;;;;;;2339198;53;21088;-74
2022/11/23 01:31:33;;;;;;;2.42;0.80;;;11.30;71.50;;;;;;2368076;52;21753;-76
2022/11/23 01:34:01;;;;;;;3.47;0.65;;;11.30;71.60;;;;;;2354019;52;21002;-75
2022/11/23 01:36:29;;;;;;;1.17;0.40;;;11.30;71.60;;;;;;2351845;53;22116;-73
2022/11/23 01:38:57;;;;;;;1.80;0.55;;;11.30;71.60;;;;;;2379823;52;20944;-74
2022/11/23 01:41:34;;;;;;;3.75;0.60;;;11.30;71.60;;;;;;2358778;53;21472;-77
2022/11/23 01:44:20;;;;;;;1.70;0.60;;;11.30;71.40;;;;;;2564123;52;20935;-77
2022/11/23 01:46:53;;;;;;;4.10;0.80;;;11.30;71.70;;;;;;2359681;53;20967;-74
2022/11/23 01:49:19;;;;;;;2.85;1.15;;;11.30;71.60;;;;;;2337087;53;21048;-76
2022/11/23 01:51:48;;;;;;;2.65;0.70;;;11.30;71.70;;;;;;2364375;53;20969;-73
2022/11/23 01:54:27;;;;;;;2.03;0.50;;;11.30;71.70;;;;;;2362274;53;20957;-74
2022/11/23 01:56:56;;;;;;;3.65;0.90;;;11.30;71.60;;;;;;2360347;53;21057;-73
2022/11/23 01:59:22;;;;;;;1.92;0.55;;;11.30;71.70;;;;;;2394025;53;21071;-73
2022/11/23 02:01:50;;;;;;;3.90;0.80;;;11.30;71.80;;;;;;2342741;53;21592;-75
2022/11/23 02:04:21;;;;;;;4.12;0.88;;;11.30;71.80;;;;;;2468417;52;20974;-75
2022/11/23 02:06:48;;;;;;;2.58;0.68;;;11.30;71.70;;;;;;2362103;53;21088;-74
2022/11/23 02:09:15;;;;;;;2.40;0.60;;;11.30;71.80;;;;;;2376284;52;21025;-72
2022/11/23 02:11:41;;;;;;;2.53;0.80;;;11.30;71.80;;;;;;2350113;53;21046;-74
2022/11/23 02:14:10;;;;;;;2.95;0.75;;;11.30;71.80;;;;;;2353752;53;20958;-76
2022/11/23 02:16:36;;;;;;;3.00;0.70;;;11.30;71.70;;;;;;2362070;53;22039;-74
2022/11/23 02:19:03;;;;;;;1.92;0.60;;;11.30;71.70;;;;;;2387051;52;21499;-73
2022/11/23 02:21:38;;;;;;;2.85;0.80;;;11.30;71.70;;;;;;2361657;53;21557;-76
2022/11/23 02:24:39;;;;;;;5.25;0.85;;;11.30;71.80;;;;;;2384160;52;21014;-73
2022/11/23 02:27:06;;;;;;;6.82;0.77;;;11.30;71.00;;;;;;2362068;53;21996;-75
2022/11/23 02:29:33;;;;;;;6.15;0.90;;;11.30;71.70;;;;;;2361983;53;21346;-74
2022/11/23 02:32:00;;;;;;;3.60;0.77;;;11.30;71.70;;;;;;2361619;53;21057;-76
2022/11/23 02:34:26;;;;;;;2.85;0.60;;;11.20;71.60;;;;;;2613736;52;21918;-74
2022/11/23 02:36:55;;;;;;;2.53;0.80;;;11.30;71.70;;;;;;2405360;52;20997;-75
2022/11/23 02:39:44;;;;;;;1.95;0.60;;;11.30;71.70;;;;;;2361989;53;20974;-77
2022/11/23 02:42:12;;;;;;;2.83;0.65;;;11.20;71.60;;;;;;2365486;52;20934;-76
2022/11/23 02:45:07;;;;;;;1.73;0.62;;;11.20;71.60;;;;;;2549402;52;20918;-76
2022/11/23 02:47:36;;;;;;;2.47;0.65;;;11.20;71.20;;;;;;2362063;53;20973;-72
2022/11/23 02:50:03;;;;;;;2.60;0.60;;;11.30;71.80;;;;;;2361931;53;20986;-74
2022/11/23 02:52:29;;;;;;;3.25;0.70;;;11.20;71.70;;;;;;2361708;53;20973;-77
2022/11/23 02:54:57;;;;;;;2.97;0.75;;;11.30;71.80;;;;;;2361321;53;21916;-72
2022/11/23 02:57:23;;;;;;;3.58;0.90;;;11.20;71.70;;;;;;2460710;52;20954;-78
2022/11/23 02:59:49;;;;;;;2.92;0.82;;;11.30;71.90;;;;;;2350775;54;20962;-75
2022/11/23 03:02:22;;;;;;;3.50;0.60;;;11.30;71.90;;;;;;2354957;53;20993;-73
2022/11/23 03:04:52;;;;;;;4.87;0.80;;;11.20;71.60;;;;;;2339329;54;21006;-75
2022/11/23 03:07:18;;;;;;;5.68;1.45;;;11.20;71.70;;;;;;2325497;54;21447;-74
2022/11/23 03:09:45;;;;;;;4.47;0.70;;;11.20;71.80;;;;;;2346205;54;22002;-75
2022/11/23 03:12:11;;;;;;;1.83;0.55;;;11.30;71.90;;;;;;2369528;53;20994;-77
2022/11/23 03:14:38;;;;;;;2.40;0.62;;;11.30;71.80;;;;;;2361790;53;21906;-72
2022/11/23 03:17:04;;;;;;;4.12;0.70;;;11.30;71.90;;;;;;2362109;53;21423;-75
2022/11/23 03:19:31;;;;;;;1.98;0.70;;;11.30;71.80;;;;;;2361957;53;21030;-71
2022/11/23 03:21:57;;;;;;;2.58;0.70;;;11.20;71.70;;;;;;2361716;53;21044;-74
2022/11/23 03:24:24;;;;;;;3.65;0.80;;;11.20;71.70;;;;;;2361945;53;20966;-73
2022/11/23 03:26:51;;;;;;;3.90;0.70;;;11.30;71.70;;;;;;2362188;53;21463;-72
2022/11/23 03:29:18;;;;;;;3.33;0.98;;;11.30;71.60;;;;;;2334354;53;21780;-77
2022/11/23 03:31:47;;;;;;;3.67;0.90;;;11.20;71.40;;;;;;2334579;53;20953;-74
2022/11/23 03:34:14;;;;;;;3.20;0.98;;;11.20;71.90;;;;;;2350692;53;21534;-74
2022/11/23 03:36:40;;;;;;;5.22;0.80;;;11.20;71.30;;;;;;2347748;53;21084;-73
2022/11/23 03:39:07;;;;;;;2.47;0.77;;;11.20;71.30;;;;;;2330706;53;21048;-74
2022/11/23 03:41:33;;;;;;;2.45;0.52;;;11.20;71.20;;;;;;2341683;53;20928;-75
2022/11/23 03:44:03;;;;;;;2.40;0.60;;;11.20;71.20;;;;;;2339939;53;20954;-77
2022/11/23 03:46:30;;;;;;;2.92;0.65;;;11.20;71.20;;;;;;2361618;53;20942;-76
2022/11/23 03:48:57;;;;;;;2.15;0.57;;;11.10;71.20;;;;;;2361128;53;21490;-74
2022/11/23 03:51:23;;;;;;;2.83;0.60;;;11.10;71.10;;;;;;2361508;53;20961;-72
2022/11/23 03:53:50;;;;;;;1.52;0.68;;;11.10;71.10;;;;;;2361828;53;20962;-74
2022/11/23 03:56:16;;;;;;;2.30;0.60;;;11.10;71.10;;;;;;2361565;53;21025;-75
2022/11/23 03:58:42;;;;;;;3.17;0.65;;;11.00;71.00;;;;;;2429209;52;20986;-72
2022/11/23 04:01:09;;;;;;;5.43;0.90;;;11.00;71.00;;;;;;2361851;53;20938;-73
2022/11/23 04:03:38;;;;;;;3.20;0.57;;;11.00;71.10;;;;;;2360656;53;21335;-73
2022/11/23 04:06:06;;;;;;;2.30;0.52;;;11.00;71.10;;;;;;2361954;53;20926;-73
2022/11/23 04:08:33;;;;;;;1.75;0.60;;;10.90;71.00;;;;;;2361989;53;20937;-76
2022/11/23 04:10:59;;;;;;;2.78;0.70;;;10.90;71.10;;;;;;2397373;52;20923;-73
2022/11/23 04:13:26;;;;;;;2.20;0.57;;;10.90;71.20;;;;;;2398527;52;21037;-75
2022/11/23 04:15:52;;;;;;;3.12;0.82;;;10.90;71.20;;;;;;2373352;52;20910;-73
2022/11/23 04:18:19;;;;;;;2.22;0.60;;;10.90;71.30;;;;;;2439803;52;20931;-73
2022/11/23 04:20:45;;;;;;;2.53;0.60;;;10.90;71.40;;;;;;2343624;53;20925;-73
2022/11/23 04:23:12;;;;;;;2.50;0.55;;;10.90;71.50;;;;;;2359010;53;21008;-76
2022/11/23 04:25:39;;;;;;;2.40;0.60;;;10.80;71.40;;;;;;2348940;54;21510;-73
2022/11/23 04:28:06;;;;;;;2.42;0.70;;;10.80;71.50;;;;;;2361933;53;20987;-72
2022/11/23 04:30:32;;;;;;;2.28;0.68;;;10.80;71.60;;;;;;2461981;52;20967;-75
2022/11/23 04:32:59;;;;;;;3.78;0.80;;;10.80;71.70;;;;;;2362612;53;20946;-76
2022/11/23 04:35:26;;;;;;;2.20;0.62;;;10.80;71.70;;;;;;2362124;53;20954;-75
2022/11/23 04:37:52;;;;;;;2.85;0.60;;;10.80;71.70;;;;;;2408425;52;21033;-74
2022/11/23 04:40:19;;;;;;;5.82;1.15;;;10.80;71.70;;;;;;2612911;52;21284;-76
2022/11/23 04:42:46;;;;;;;2.10;0.50;;;10.90;71.90;;;;;;2361668;53;21925;-75
2022/11/23 04:45:12;;;;;;;2.25;0.68;;;10.90;71.90;;;;;;2361897;53;20954;-73
2022/11/23 04:47:39;;;;;;;3.22;0.65;;;10.90;72.00;;;;;;2361774;53;21046;-72
2022/11/23 04:50:05;;;;;;;3.00;0.70;;;10.90;72.00;;;;;;2361654;53;20931;-74
2022/11/23 04:52:33;;;;;;;1.65;0.47;;;10.90;71.90;;;;;;2361356;53;21073;-74
2022/11/23 04:55:00;;;;;;;4.03;0.82;;;10.90;72.00;;;;;;2361563;53;21423;-75
2022/11/23 04:57:26;;;;;;;1.65;0.50;;;10.90;71.90;;;;;;2396617;52;20949;-72
2022/11/23 04:59:52;;;;;;;3.78;0.70;;;10.90;71.90;;;;;;2380697;52;20976;-75
2022/11/23 05:02:19;;;;;;;3.28;0.52;;;10.90;71.90;;;;;;2361714;53;21014;-73
2022/11/23 05:04:48;;;;;;;1.92;0.60;;;10.90;71.90;;;;;;2361229;53;20997;-75
2022/11/23 05:07:14;;;;;;;3.08;0.70;;;10.90;71.90;;;;;;2359801;53;21059;-73
2022/11/23 05:09:44;;;;;;;3.42;0.75;;;10.90;71.80;;;;;;2358938;53;20926;-73
2022/11/23 05:12:10;;;;;;;1.67;0.43;;;10.90;71.90;;;;;;2362700;53;20941;-74
2022/11/23 05:14:37;;;;;;;3.87;0.70;;;10.80;71.70;;;;;;2361782;53;21025;-72
2022/11/23 05:17:04;;;;;;;2.30;0.75;;;10.90;71.90;;;;;;2449212;52;20994;-76
2022/11/23 05:19:31;;;;;;;2.92;0.50;;;11.00;72.00;;;;;;2361303;53;20926;-76
2022/11/23 05:21:59;;;;;;;1.77;0.40;;;10.90;71.90;;;;;;2361466;53;20950;-76
2022/11/23 05:24:25;;;;;;;4.82;0.85;;;11.00;72.00;;;;;;2360989;53;20989;-76
2022/11/23 05:26:55;;;;;;;2.75;0.82;;;11.00;72.00;;;;;;2393511;52;20965;-74
2022/11/23 05:29:22;;;;;;;3.67;0.60;;;11.00;72.00;;;;;;2357524;53;20934;-71
2022/11/23 05:31:48;;;;;;;3.85;0.77;;;11.00;72.00;;;;;;2361864;53;20931;-73
2022/11/23 05:34:15;;;;;;;2.03;0.60;;;11.00;71.90;;;;;;2361585;53;20924;-74
2022/11/23 05:36:42;;;;;;;4.30;0.80;;;11.00;71.80;;;;;;2361900;53;20941;-74
2022/11/23 05:39:09;;;;;;;3.45;1.05;;;11.00;71.80;;;;;;2361747;53;20962;-77
2022/11/23 05:41:36;;;;;;;2.55;0.60;;;11.00;71.70;;;;;;2361907;53;20918;-74
2022/11/23 05:44:04;;;;;;;3.25;1.08;;;11.00;71.60;;;;;;2357672;53;20980;-75
2022/11/23 05:46:30;;;;;;;2.67;1.00;;;11.00;72.30;;;;;;2361423;53;21078;-76
2022/11/23 05:48:57;;;;;;;3.05;0.80;;;11.00;71.50;;;;;;2361661;53;20914;-74
2022/11/23 05:51:27;;;;;;;2.37;0.90;;;11.00;71.50;;;;;;2565743;52;21986;-74
2022/11/23 05:53:53;;;;;;;2.58;0.82;;;11.00;71.40;;;;;;2359611;53;21435;-73
2022/11/23 05:56:19;;;;;;;3.17;0.93;;;10.90;71.20;;;;;;2358569;53;21985;-74
2022/11/23 05:58:46;;;;;;;4.50;1.00;;;11.00;71.30;;;;;;2356951;53;21045;-77
2022/11/23 06:01:12;;;;;;;4.68;0.70;;;10.90;71.20;;;;;;2362517;53;20939;-75
2022/11/23 06:03:38;;;;;;;1.95;0.60;;;10.90;71.10;;;;;;2360442;53;22166;-72
2022/11/23 06:06:05;;;;;;;1.92;0.52;;;10.90;71.10;;;;;;2359395;53;20955;-71
2022/11/23 06:08:32;;;;;;;3.22;0.80;;;10.90;71.00;;;;;;2441564;52;20962;-73
2022/11/23 06:11:02;;;;;;;5.12;0.70;;;10.80;70.90;;;;;;2362324;53;20966;-75
2022/11/23 06:13:31;;;;;;;0.98;0.40;;;10.80;70.80;;;;;;2362117;53;20926;-76
2022/11/23 06:15:57;;;;;;;4.78;0.60;;;10.80;70.80;;;;;;2363463;53;20926;-73
2022/11/23 06:18:23;;;;;;;2.22;0.75;;;10.80;70.90;;;;;;2361890;53;21005;-73
2022/11/23 06:20:50;;;;;;;4.32;0.80;;;10.80;71.00;;;;;;2523503;52;21993;-77
2022/11/23 06:23:16;;;;;;;2.00;0.50;;;10.70;70.80;;;;;;2362552;53;20978;-75
2022/11/23 06:25:43;;;;;;;1.25;0.50;;;10.70;70.80;;;;;;2391983;52;20957;-74
2022/11/23 06:28:10;;;;;;;1.98;0.50;;;10.70;70.70;;;;;;2362173;53;21049;-74
2022/11/23 06:30:37;;;;;;;1.98;0.60;;;10.60;70.50;;;;;;2362584;53;21814;-72
2022/11/23 06:33:03;;;;;;;2.67;0.60;;;10.60;70.30;;;;;;2361715;53;21200;-77
2022/11/23 06:35:30;;;;;;;4.12;0.60;;;10.60;70.10;;;;;;2614213;52;20938;-74
2022/11/23 06:37:57;;;;;;;5.75;0.80;;;10.50;70.00;;;;;;2362368;53;20951;-75
2022/11/23 06:40:23;;;;;;;1.50;0.60;;;10.50;70.00;;;;;;2362025;53;21065;-74
2022/11/23 06:42:52;;;;;;;2.45;0.70;;;10.40;70.00;;;;;;2362346;53;21002;-73
2022/11/23 06:45:19;;;;;;;2.00;0.70;;;10.40;69.90;;;;;;2359403;53;20992;-76
2022/11/23 06:47:46;;;;;;;1.48;0.50;;;10.30;69.80;;;;;;2359147;53;21054;-74
2022/11/23 06:50:13;;;;;;;1.65;0.60;;;10.30;69.80;;;;;;2361511;53;20984;-76
2022/11/23 06:52:40;;;;;;;3.15;0.98;;;10.20;69.60;;;;;;2357603;53;21004;-75
2022/11/23 06:55:07;;;;;;;3.17;1.00;;;10.10;69.40;;;;;;2362094;53;20973;-74
2022/11/23 06:57:33;;;;;;;3.78;1.05;;;10.10;70.00;;;;;;2361987;53;21004;-77
2022/11/23 07:00:00;;;;;;;4.85;1.08;;;10.00;69.10;;;;;;2409577;52;20902;-75
2022/11/23 07:02:26;;;;;;;4.75;1.10;;;10.00;69.10;;;;;;2361949;53;20930;-74
2022/11/23 07:04:53;;;;;;;2.85;1.05;;;9.90;70.20;;;;;;2362183;53;21041;-74
2022/11/23 07:07:19;;;;;;;3.00;0.90;;;9.80;70.10;;;;;;2359223;53;20906;-73
2022/11/23 07:09:46;;;;;;;3.28;1.52;;;9.80;70.20;;;;;;2362495;53;22059;-76
2022/11/23 07:12:12;;;;;;;6.90;1.40;;;9.70;70.20;;;;;;2361776;53;20970;-71
2022/11/23 07:14:39;;;;;;;3.72;1.05;;;9.70;70.30;;;;;;2612760;52;20894;-71
2022/11/23 07:17:06;;;;;;;2.90;0.73;;;9.60;70.30;;;;;;2349675;54;20951;-76
2022/11/23 07:19:33;;;;;;;4.00;1.00;;;9.60;70.40;;;;;;2358528;53;20927;-74
2022/11/23 07:22:00;;;;;;;4.03;1.00;;;9.50;70.50;;;;;;2362389;53;21419;-73
2022/11/23 07:24:28;;;;;;;3.42;1.02;;;9.40;70.40;;;;;;2361844;53;20942;-73
2022/11/23 07:26:57;;;;;;;1.90;0.68;;;9.40;70.40;;;;;;2357586;53;20983;-76
2022/11/23 07:29:23;;;;;;;2.67;0.73;;;9.40;70.40;;;;;;2419942;52;21009;-72
2022/11/23 07:31:50;;;;;;;2.33;0.95;;;9.30;70.30;;;;;;2361916;53;20930;-75
2022/11/23 07:34:16;;;;;;;3.12;1.00;;;9.30;70.30;;;;;;2493951;52;20922;-73
2022/11/23 07:36:42;;;;;;;2.42;0.82;;;9.20;70.40;;;;;;2362390;53;20994;-72
2022/11/23 07:39:10;;;;;;;2.97;1.02;;;9.20;70.60;;;;;;2361782;53;21541;-74
2022/11/23 07:41:36;;;;;;;4.87;1.45;;;9.20;70.70;;;;;;2361970;53;21417;-71
2022/11/23 07:44:03;;;;;;;2.50;0.80;;;9.10;70.80;;;;;;2362097;53;20926;-72
2022/11/23 07:46:31;;;;;;;2.78;1.00;;;9.10;70.90;;;;;;2361536;53;20958;-72
2022/11/23 07:49:01;;;;;;;3.12;1.00;;;9.00;70.80;;;;;;2362375;53;21065;-72
2022/11/23 07:51:28;;;;;;;5.25;1.37;;;9.00;70.90;;;;;;2613734;52;21022;-74
2022/11/23 07:53:55;;;;;;;6.05;1.30;;;9.00;71.00;;;;;;2362461;53;20910;-71
2022/11/23 07:56:23;;;;;;;2.65;0.88;;;9.00;71.10;;;;;;2421719;52;21032;-71
2022/11/23 07:58:49;;;;;;;3.75;1.42;;;9.00;71.10;;;;;;2365340;53;21455;-75
2022/11/23 08:01:17;;;;;;;4.97;1.23;;;9.00;71.20;;;;;;2422443;53;21907;-73
2022/11/23 08:03:52;;;;;;;4.37;1.67;;;8.90;71.20;;;;;;2362369;53;20931;-77
2022/11/23 08:06:19;;;;;;;4.22;1.30;;;8.90;71.30;;;;;;2375905;52;20938;-74
2022/11/23 08:08:49;;;;;;;7.07;1.48;;;8.90;71.30;;;;;;2362242;53;21435;-76
2022/11/23 08:11:19;;;;;;;4.15;1.50;;;9.00;71.50;;;;;;2381976;52;20962;-72
2022/11/23 08:13:46;;;;;;;3.62;1.17;;;8.90;71.60;;;;;;2362001;53;20950;-72
2022/11/23 08:16:13;;;;;;;3.05;1.20;;;8.90;71.70;;;;;;2507011;52;20953;-73
2022/11/23 08:18:39;;;;;;;3.10;1.00;;;8.90;71.80;;;;;;2361992;53;21502;-71
2022/11/23 08:21:07;;;;;;;4.75;1.20;;;8.90;71.80;;;;;;2525548;52;20974;-74
2022/11/23 08:23:34;;;;;;;3.85;1.00;;;8.90;71.90;;;;;;2362266;53;21045;-76
2022/11/23 08:26:02;;;;;;;3.22;1.00;;;8.90;72.10;;;;;;2613554;52;20930;-71
2022/11/23 08:28:31;;;;;;;2.83;0.90;;;8.90;72.20;;;;;;2359007;53;20932;-72
2022/11/23 08:30:57;;;;;;;3.05;0.80;;;8.90;72.30;;;;;;2437730;52;21069;-75
2022/11/23 08:33:25;;;;;;;2.12;0.70;;;8.90;72.40;;;;;;2361975;53;20922;-76
2022/11/23 08:35:52;;;;;;;3.45;0.95;;;9.00;72.60;;;;;;2483610;52;22009;-74
2022/11/23 08:38:19;;;;;;;3.83;1.37;;;9.00;72.70;;;;;;2361828;53;21041;-75
2022/11/23 08:40:45;;;;;;;1.80;0.62;;;9.00;72.80;;;;;;2383115;52;20982;-71
2022/11/23 08:43:12;;;;;;;4.57;1.00;;;9.00;72.90;;;;;;2362193;53;20934;-72
2022/11/23 08:45:42;;;;;;;2.53;1.15;;;9.10;73.10;;;;;;2473021;52;21419;-73
2022/11/23 08:48:09;;;;;;;4.60;1.48;;;9.10;73.30;;;;;;2362100;53;21162;-75
2022/11/23 08:50:37;;;;;;;3.85;1.52;;;9.10;73.50;;;;;;2377539;52;21040;-76
2022/11/23 08:53:04;;;;;;;3.47;1.30;;;9.20;73.60;;;;;;2361752;53;21583;-72
2022/11/23 08:55:33;;;;;;;5.87;1.83;;;9.20;73.80;;;;;;2489738;52;20918;-74
2022/11/23 08:58:00;;;;;;;5.40;1.45;;;9.30;73.90;;;;;;2578277;52;20974;-78
2022/11/23 09:00:27;;;;;;;3.53;1.40;;;9.40;74.10;;;;;;2542305;52;20932;-75
2022/11/23 09:02:54;;;;;;;3.90;1.30;;;9.40;74.20;;;;;;2345332;53;20945;-73
2022/11/23 09:05:20;;;;;;;6.65;1.55;;;9.50;74.20;;;;;;2336240;53;20925;-76
2022/11/23 09:07:46;;;;;;;5.55;1.73;;;9.50;74.20;;;;;;2334496;53;20941;-74
2022/11/23 09:10:15;;;;;;;5.05;2.03;;;9.50;74.20;;;;;;2409596;52;21560;-76
2022/11/23 09:12:44;;;;;;;6.32;2.08;;;9.60;75.10;;;;;;2334392;53;21551;-75
2022/11/23 09:15:11;;;;;;;5.10;1.60;;;9.70;74.50;;;;;;2320139;54;21037;-76
2022/11/23 09:17:38;;;;;;;3.65;1.52;;;9.70;74.50;;;;;;2316338;54;20948;-75
2022/11/23 09:20:05;;;;;;;2.78;1.00;;;9.80;74.50;;;;;;2346837;54;21521;-74
2022/11/23 09:22:32;;;;;;;4.37;1.40;;;9.80;74.50;;;;;;2549377;52;20958;-76
2022/11/23 09:24:58;;;;;;;2.35;0.77;;;9.90;74.70;;;;;;2343026;53;21077;-75
2022/11/23 09:27:25;;;;;;;3.22;1.30;;;10.00;73.60;;;;;;2343676;53;20953;-75
2022/11/23 09:29:51;;;;;;;2.33;0.90;;;10.00;73.60;;;;;;2529878;52;20938;-76
2022/11/23 09:32:18;;;;;;;5.03;1.42;;;10.10;73.70;;;;;;2361931;53;20942;-75
2022/11/23 09:34:44;;;;;;;5.55;1.55;;;10.20;73.80;;;;;;2369942;52;20997;-74
2022/11/23 09:37:12;;;;;;;5.32;1.25;;;10.20;73.80;;;;;;2361658;53;20922;-77
2022/11/23 09:39:39;;;;;;;7.05;1.65;;;10.20;73.70;;;;;;2362492;53;20922;-76
2022/11/23 09:43:27;;;;;;;3.67;1.30;;;10.30;73.70;;;;;;2361972;53;20948;-73
2022/11/23 09:45:56;;;;;;;4.20;1.30;;;10.40;73.30;;;;;;2372607;52;20946;-75
2022/11/23 09:55:31;;;;;;;4.65;1.35;;;10.40;73.60;;;;;;2361861;53;20881;-75
2022/11/23 09:58:05;;;;;;;2.62;1.10;;;10.50;73.20;;;;;;2557561;52;20963;-77
2022/11/23 10:00:58;;;;;;;4.40;1.60;;;10.70;74.00;;;;;;2344903;53;21210;-78
2022/11/23 10:03:24;;;;;;;;;;;10.70;74.00;;;;;;2458896;52;20950;-74
2022/11/23 10:06:04;;;;;;;4.50;1.27;;;10.80;73.20;;;;;;2361778;53;20066;-73
2022/11/23 10:08:59;;;;;;;4.22;1.40;;;10.90;74.10;;;;;;2337947;53;20965;-73
2022/11/23 10:11:52;;;;;;;6.10;1.60;;;10.90;74.10;;;;;;2367646;52;21031;-75
2022/11/23 10:17:58;;;;;;;5.37;1.80;;;11.00;74.10;;;;;;2338224;53;20912;-74
2022/11/23 10:23:28;;;;;;;4.00;1.55;;;11.10;74.50;;;;;;2366417;53;20968;-78
2022/11/23 10:25:55;;;;;;;3.75;1.20;;;11.30;73.70;;;;;;2340307;53;20933;-74
2022/11/23 10:28:24;;;;;;;4.53;1.30;;;11.50;75.10;;;;;;2352534;53;20961;-75
2022/11/23 10:31:18;;;;;;;6.45;1.67;;;11.50;75.00;;;;;;2338457;53;21001;-74
2022/11/23 10:36:22;;;;;;;5.32;1.70;;;11.50;74.80;;;;;;2336283;53;20947;-75
2022/11/23 10:38:57;;;;;;;5.87;1.40;;;11.70;74.00;;;;;;2579897;52;21029;-75
2022/11/23 10:41:23;;;;;;;9.52;1.70;;;11.80;75.20;;;;;;2393483;53;20961;-74
2022/11/23 10:45:09;;;;;;;6.35;1.73;;;11.80;75.40;;;;;;2339354;54;21031;-74
2022/11/23 10:47:41;;;;;;;6.28;1.80;;;11.90;74.90;;;;;;2370270;53;21061;-74
2022/11/23 10:50:26;;;;;;;6.37;1.90;;;12.00;75.10;;;;;;2317449;54;20990;-74
2022/11/23 10:52:58;;;;;;;6.35;1.75;;;12.10;74.80;;;;;;2334612;53;20964;-74
2022/11/23 10:55:46;;;;;;;4.87;1.60;;;12.10;75.40;;;;;;2580199;52;22095;-74
2022/11/23 10:58:48;;;;;;;7.22;1.80;;;12.20;75.00;;;;;;2334878;53;20984;-73
2022/11/23 11:01:21;;;;;;;5.00;1.45;;;12.30;75.00;;;;;;2580022;52;20953;-74
2022/11/23 11:03:55;;;;;;;4.32;1.52;;;12.30;75.90;;;;;;2333394;53;21032;-75
2022/11/23 11:06:29;;;;;;;5.03;1.62;;;12.40;76.10;;;;;;2358913;53;21069;-74
2022/11/23 11:08:57;;;;;;;6.78;1.42;;;12.50;75.70;;;;;;2362275;53;20946;-77
2022/11/23 11:11:29;;;;;;;3.60;1.50;;;12.60;75.70;;;;;;2370386;52;21049;-74
2022/11/23 11:15:01;;;;;;;3.87;1.40;;;12.60;75.30;;;;;;2361642;52;22167;-74
2022/11/23 11:17:32;;;;;;;4.95;1.80;;;12.70;73.70;;;;;;2361051;53;21069;-80
2022/11/23 11:20:28;;;;;;;5.97;1.90;;;12.70;74.80;;;;;;2466491;52;21062;-74
2022/11/23 11:22:55;;;;;;;4.75;1.65;;;12.80;73.90;;;;;;2535485;52;21957;-74
2022/11/23 11:25:33;;;;;;;6.45;1.65;;;12.80;74.70;;;;;;2412964;52;21006;-76
2022/11/23 11:27:59;;;;;;;6.00;1.77;;;12.80;74.00;;;;;;2369924;52;20922;-76
2022/11/23 11:30:31;;;;;;;2.85;1.15;;;12.90;74.50;;;;;;2367379;52;20922;-74
2022/11/23 11:35:35;;;;;;;4.72;1.50;;;12.90;74.40;;;;;;2360965;53;20994;-74
2022/11/23 11:38:17;;;;;;;4.82;1.30;;;12.90;72.70;;;;;;2380979;53;21562;-74
2022/11/23 11:40:47;;;;;;;4.28;1.48;;;13.00;73.50;;;;;;2461367;52;20967;-76
2022/11/23 11:43:20;;;;;;;3.67;1.17;;;13.00;73.60;;;;;;2329641;53;21044;-74
2022/11/23 11:45:49;;;;;;;4.18;1.30;;;13.00;73.50;;;;;;2571582;52;21256;-75
2022/11/23 11:48:41;;;;;;;7.05;1.65;;;13.00;73.70;;;;;;2359072;53;21050;-76
2022/11/23 11:51:26;;;;;;;5.60;1.92;;;13.00;73.60;;;;;;2357187;53;21045;-75
2022/11/23 11:54:43;;;;;;;5.25;1.70;;;13.00;73.60;;;;;;2502242;52;20993;-77
2022/11/23 11:57:15;;;;;;;4.93;1.55;;;13.00;73.00;;;;;;2445128;52;20967;-75
2022/11/23 11:59:44;;;;;;;4.97;1.80;;;13.10;74.00;;;;;;2357078;53;21342;-74
2022/11/23 12:02:30;;;;;;;4.45;1.55;;;13.10;74.10;;;;;;2444905;52;20949;-74
2022/11/23 12:05:28;;;;;;;4.70;1.80;;;13.10;73.30;;;;;;2366513;52;21009;-75
2022/11/23 12:11:47;;;;;;;4.78;2.20;;;13.20;73.40;;;;;;2451241;52;21006;-74
2022/11/23 12:14:14;;;;;;;3.55;1.20;;;13.20;73.20;;;;;;2537959;52;20990;-76
2022/11/23 12:17:05;;;;;;;4.62;1.70;;;13.30;74.30;;;;;;2387251;52;20910;-73
2022/11/23 12:19:58;;;;;;;5.00;1.90;;;13.30;73.50;;;;;;2362238;53;21013;-74
2022/11/23 12:23:38;;;;;;;3.97;1.60;;;13.40;74.10;;;;;;2344201;53;21022;-73
2022/11/23 12:26:31;;;;;;;4.47;1.92;;;13.40;72.90;;;;;;2613165;52;21093;-75
2022/11/23 12:31:42;;;;;;;5.55;1.75;;;13.50;73.60;;;;;;2362067;53;21470;-74
2022/11/23 12:35:45;;;;;;;2.95;1.35;;;13.50;74.20;;;;;;2613344;52;20966;-74
2022/11/23 12:41:50;;;;;;;5.85;1.58;;;13.60;74.00;;;;;;2360926;53;22082;-73
2022/11/23 12:46:05;;;;;;;3.80;1.30;;;13.70;74.50;;;;;;2362023;53;20974;-73
2022/11/23 12:49:04;;;;;;;4.87;1.40;;;13.80;73.80;;;;;;2343589;53;20951;-73
2022/11/23 12:59:48;;;;;;;3.72;1.27;;;13.90;74.70;;;;;;2361823;53;21158;-74
2022/11/23 13:02:38;;;;;;;3.47;0.80;;;14.10;73.70;;;;;;2505022;52;21962;-74
2022/11/23 13:06:45;;;;;;;3.65;0.70;;;14.20;74.90;;;;;;2438756;52;21966;-73
2022/11/23 13:10:01;;;;;;;1.92;0.75;;;14.30;73.30;;;;;;2446400;52;20934;-74
2022/11/23 13:15:25;;;;;;;1.75;0.60;;;14.30;74.60;;;;;;2361409;53;21336;-73
2022/11/23 13:18:33;;;;;;;2.10;0.60;;;14.40;74.00;;;;;;2345781;53;21456;-73
2022/11/23 13:21:28;;;;;;;1.52;0.60;;;14.50;73.50;;;;;;2361407;53;20950;-74
2022/11/23 13:23:54;;;;;;;2.33;0.80;;;14.60;73.50;;;;;;2612998;52;20902;-73
2022/11/23 13:26:22;;;;;;;2.53;0.80;;;14.60;74.50;;;;;;2361167;53;20947;-74
2022/11/23 13:28:55;;;;;;;2.15;0.80;;;14.70;74.50;;;;;;2361529;53;20938;-73
2022/11/23 13:31:24;;;;;;;2.45;0.75;;;14.70;74.60;;;;;;2349444;53;20978;-75
2022/11/23 13:33:55;;;;;;;2.00;0.85;;;14.80;74.70;;;;;;2355871;53;20926;-74
2022/11/23 13:36:41;;;;;;;2.33;0.60;;;14.80;74.70;;;;;;2361519;53;21054;-72
2022/11/23 13:40:19;;;;;;;1.87;0.65;;;14.90;74.10;;;;;;2361472;53;21985;-74
2022/11/23 13:42:46;;;;;;;1.45;0.52;;;15.00;73.60;;;;;;2361140;53;20957;-75
2022/11/23 13:45:29;;;;;;;1.95;0.50;;;15.10;75.30;;;;;;2370471;52;21935;-73
2022/11/23 13:48:20;;;;;;;1.20;0.32;;;15.20;73.90;;;;;;2367977;52;21680;-76
2022/11/23 13:51:07;;;;;;;1.95;0.52;;;15.30;73.80;;;;;;2363153;52;21370;-75
2022/11/23 13:53:38;;;;;;;1.92;0.60;;;15.30;74.20;;;;;;2490427;52;21301;-76